Time;durP1;ratioP1;P1;durP2;ratioP2;P2;SDS_P1;SDS_P2;PMS_P1;PMS_P2;Temp;Humidity;BMP_temperature;BMP_pressure;BME280_temperature;BME280_humidity;BME280_pressure;Samples;Min_cycle;Max_cycle;Signal;HPM_P1;HPM_P2
2022/07/17 00:03:27;;;;;;;1.00;0.90;;;;;;;19.75;51.95;97722.41;10174898;29;20060;-56
2022/07/17 00:08:46;;;;;;;1.63;0.90;;;;;;;19.75;51.96;97725.09;10174402;29;20048;-56
2022/07/17 00:14:06;;;;;;;0.85;0.75;;;;;;;19.74;51.97;97728.94;10174295;29;20056;-56
2022/07/17 00:19:25;;;;;;;0.88;0.85;;;;;;;19.73;51.93;97720.00;10186923;29;20385;-55
2022/07/17 00:24:45;;;;;;;0.80;0.80;;;;;;;19.75;51.89;97725.91;10163247;29;20080;-56
2022/07/17 00:30:05;;;;;;;0.77;0.70;;;;;;;19.75;52.50;97725.09;10173392;29;20059;-56
2022/07/17 00:35:24;;;;;;;1.17;0.90;;;;;;;19.73;51.92;97727.31;10173681;29;20067;-56
2022/07/17 00:40:44;;;;;;;1.00;0.90;;;;;;;19.73;51.92;97730.81;10193102;29;20044;-56
2022/07/17 00:46:04;;;;;;;1.55;1.00;;;;;;;19.73;51.74;97733.50;10173551;29;20056;-56
2022/07/17 00:51:24;;;;;;;0.85;0.85;;;;;;;19.74;51.74;97742.44;10172743;29;20504;-55
2022/07/17 00:56:46;;;;;;;0.80;0.70;;;;;;;19.74;51.91;97737.03;10172666;29;20078;-56
2022/07/17 01:02:11;;;;;;;1.27;0.80;;;;;;;19.72;51.80;97733.84;10163071;29;20048;-56
2022/07/17 01:07:31;;;;;;;1.85;0.85;;;;;;;19.73;51.75;97743.53;10173065;29;20437;-57
2022/07/17 01:12:50;;;;;;;0.73;0.70;;;;;;;19.73;51.81;97751.66;10172939;29;20056;-56
2022/07/17 01:18:12;;;;;;;1.27;0.80;;;;;;;19.72;51.75;97752.78;10173059;29;20056;-56
2022/07/17 01:23:32;;;;;;;0.90;0.80;;;;;;;19.72;51.60;97756.25;10172179;29;20067;-57
2022/07/17 01:28:52;;;;;;;0.80;0.80;;;;;;;19.71;51.64;97756.53;10163869;29;20297;-56
2022/07/17 01:34:15;;;;;;;0.77;0.77;;;;;;;19.72;51.57;97758.19;10167421;29;20056;-56
2022/07/17 01:39:52;;;;;;;0.90;0.80;;;;;;;19.73;51.64;97759.75;10172281;29;20060;-56
2022/07/17 01:45:13;;;;;;;1.17;0.68;;;;;;;19.71;51.43;97761.94;10172188;29;20064;-56
2022/07/17 01:50:33;;;;;;;1.70;0.80;;;;;;;19.71;51.63;97759.22;10162796;29;20138;-56
2022/07/17 01:55:52;;;;;;;1.13;0.70;;;;;;;19.71;51.50;97757.34;10191478;29;20419;-56
2022/07/17 02:01:12;;;;;;;0.82;0.80;;;;;;;19.70;51.46;97755.72;10186066;29;20092;-55
2022/07/17 02:06:31;;;;;;;1.10;0.80;;;;;;;19.70;51.43;97750.31;10177578;29;20060;-56
2022/07/17 02:11:51;;;;;;;1.15;0.82;;;;;;;19.70;51.40;97757.66;10172658;29;20062;-55
2022/07/17 02:17:10;;;;;;;1.02;0.70;;;;;;;19.69;51.38;97758.72;10176957;29;20976;-56
2022/07/17 02:22:29;;;;;;;1.30;0.77;;;;;;;19.68;51.41;97757.94;10187244;29;20397;-57
2022/07/17 02:27:49;;;;;;;0.80;0.80;;;;;;;19.69;51.33;97759.53;10189657;29;20044;-56
2022/07/17 02:33:09;;;;;;;1.05;0.77;;;;;;;19.68;51.30;97762.53;10177517;29;20531;-56
2022/07/17 02:38:28;;;;;;;1.27;0.80;;;;;;;19.68;51.14;97762.53;10190313;29;20564;-56
2022/07/17 02:43:48;;;;;;;1.10;0.82;;;;;;;19.67;51.22;97759.03;10165984;29;20064;-56
2022/07/17 02:49:07;;;;;;;1.02;0.70;;;;;;;19.67;51.16;97761.72;10177916;29;20060;-56
2022/07/17 02:54:26;;;;;;;0.88;0.77;;;;;;;19.68;50.99;97759.81;10177073;29;20060;-55
2022/07/17 02:59:46;;;;;;;1.00;0.90;;;;;;;19.67;51.04;97763.63;10177370;29;20056;-54
2022/07/17 03:05:05;;;;;;;1.13;0.80;;;;;;;19.65;51.17;97760.44;10188739;29;20055;-56
2022/07/17 03:10:25;;;;;;;0.65;0.65;;;;;;;19.65;51.13;97774.75;10189404;29;20519;-56
2022/07/17 03:15:44;;;;;;;0.85;0.65;;;;;;;19.65;51.01;97771.25;10167537;29;20055;-56
2022/07/17 03:21:04;;;;;;;1.23;0.70;;;;;;;19.65;50.98;97774.75;10176495;29;20060;-56
2022/07/17 03:26:24;;;;;;;0.88;0.70;;;;;;;19.65;50.94;97771.25;10174488;29;20064;-56
2022/07/17 03:31:45;;;;;;;1.33;0.80;;;;;;;19.64;51.01;97766.94;10164408;29;20052;-56
2022/07/17 03:37:05;;;;;;;1.20;0.80;;;;;;;19.64;51.14;97773.16;10175148;29;20052;-56
2022/07/17 03:42:24;;;;;;;1.00;0.70;;;;;;;19.64;50.98;97769.63;10175332;29;20527;-56
2022/07/17 03:47:43;;;;;;;0.95;0.57;;;;;;;19.64;50.91;97785.84;10175329;29;20119;-56
2022/07/17 03:53:03;;;;;;;1.05;0.70;;;;;;;19.63;51.16;97782.34;10168806;29;20056;-56
2022/07/17 03:58:22;;;;;;;1.10;0.68;;;;;;;19.63;50.92;97784.28;10175061;29;20454;-55
2022/07/17 04:03:41;;;;;;;1.15;0.70;;;;;;;19.65;50.91;97779.38;10187367;29;20055;-56
2022/07/17 04:09:00;;;;;;;2.17;0.77;;;;;;;19.65;50.92;97779.38;10166607;29;20071;-56
2022/07/17 04:14:20;;;;;;;0.80;0.70;;;;;;;19.67;50.57;97777.94;10174565;29;20064;-55
2022/07/17 04:19:39;;;;;;;0.80;0.70;;;;;;;19.66;50.65;97781.78;10173881;29;20059;-56
2022/07/17 04:24:58;;;;;;;0.90;0.63;;;;;;;19.71;50.54;97783.56;10173921;29;20056;-56
2022/07/17 04:30:17;;;;;;;0.60;0.60;;;;;;;19.71;50.70;97778.16;10167778;29;20048;-56
2022/07/17 04:35:37;;;;;;;0.93;0.70;;;;;;;19.74;50.71;97785.72;10179086;29;20419;-56
2022/07/17 04:40:57;;;;;;;0.88;0.70;;;;;;;19.76;50.86;97783.50;10174004;29;20064;-56
2022/07/17 04:46:16;;;;;;;0.70;0.70;;;;;;;19.76;50.69;97786.22;10161132;29;20056;-56
2022/07/17 04:51:35;;;;;;;1.08;0.70;;;;;;;19.76;50.73;97791.63;10185800;29;20044;-56
2022/07/17 04:56:55;;;;;;;0.70;0.60;;;;;;;19.77;50.77;97798.59;10185871;29;20072;-56
2022/07/17 05:02:14;;;;;;;0.75;0.60;;;;;;;19.75;50.76;97798.09;10173140;29;20064;-56
2022/07/17 05:07:34;;;;;;;1.52;0.80;;;;;;;19.76;50.85;97797.03;10166125;29;20056;-56
2022/07/17 05:12:53;;;;;;;1.02;0.60;;;;;;;19.74;50.77;97791.13;10172952;29;20064;-56
2022/07/17 05:18:13;;;;;;;1.02;0.70;;;;;;;19.74;50.88;97796.53;10185455;29;20401;-57
2022/07/17 05:23:32;;;;;;;0.80;0.68;;;;;;;19.74;51.01;97797.31;10184417;29;20056;-54
2022/07/17 05:28:51;;;;;;;1.02;0.70;;;;;;;19.74;51.12;97804.63;10183863;29;20056;-57
2022/07/17 05:34:10;;;;;;;1.48;0.50;;;;;;;19.73;51.10;97805.72;10192876;29;20045;-56
2022/07/17 05:39:29;;;;;;;1.15;0.68;;;;;;;19.72;51.21;97813.03;10190424;29;20059;-57
2022/07/17 05:44:49;;;;;;;1.45;0.70;;;;;;;19.72;51.27;97812.25;10169012;29;20103;-56
2022/07/17 05:50:08;;;;;;;1.27;0.80;;;;;;;19.71;51.30;97816.81;10179076;29;20500;-56
2022/07/17 05:55:28;;;;;;;0.77;0.60;;;;;;;19.71;51.38;97819.53;10179174;29;20048;-56
2022/07/17 06:00:51;;;;;;;0.60;0.50;;;;;;;19.71;51.33;97824.13;10179347;29;20063;-56
2022/07/17 06:06:10;;;;;;;1.75;0.70;;;;;;;19.70;51.39;97826.03;10179135;29;20086;-56
2022/07/17 06:11:30;;;;;;;1.50;0.70;;;;;;;19.72;51.38;97836.56;10179165;29;20060;-56
2022/07/17 06:16:49;;;;;;;1.60;0.70;;;;;;;19.70;51.45;97834.13;10191359;29;20055;-56
2022/07/17 06:22:08;;;;;;;1.30;0.77;;;;;;;19.70;51.50;97841.44;10168331;29;20060;-56
2022/07/17 06:27:27;;;;;;;1.30;0.75;;;;;;;19.70;51.35;97854.97;10200775;29;20111;-55
2022/07/17 06:32:47;;;;;;;1.30;0.63;;;;;;;19.70;51.47;97852.25;10178220;29;20071;-55
2022/07/17 06:38:06;;;;;;;1.08;0.70;;;;;;;19.71;51.48;97851.97;10188121;29;20052;-56
2022/07/17 06:43:26;;;;;;;1.02;0.70;;;;;;;19.70;51.44;97854.97;10177285;29;20056;-56
2022/07/17 06:48:45;;;;;;;0.93;0.60;;;;;;;19.71;51.48;97864.66;10176651;29;20496;-56
2022/07/17 06:54:05;;;;;;;0.90;0.60;;;;;;;19.71;51.50;97864.66;10176770;29;20060;-55
2022/07/17 06:59:24;;;;;;;1.50;0.80;;;;;;;19.70;51.55;97866.56;10179875;29;20048;-56
2022/07/17 07:04:44;;;;;;;2.88;1.02;;;;;;;19.71;51.49;97864.66;10177023;29;20079;-56
2022/07/17 07:10:04;;;;;;;0.73;0.70;;;;;;;19.71;51.57;97870.91;10176717;29;20064;-55
2022/07/17 07:15:24;;;;;;;0.93;0.65;;;;;;;19.72;51.61;97871.72;10176569;29;20063;-56
2022/07/17 07:20:43;;;;;;;1.33;0.65;;;;;;;19.72;51.67;97871.72;10176078;29;20515;-56
2022/07/17 07:26:03;;;;;;;0.90;0.60;;;;;;;19.72;51.56;97864.41;10183308;29;20086;-56
2022/07/17 07:31:23;;;;;;;0.68;0.60;;;;;;;19.71;51.62;97862.78;10177312;29;20086;-56
2022/07/17 07:36:42;;;;;;;1.13;0.70;;;;;;;19.73;51.69;97867.91;10175913;29;20079;-56
2022/07/17 07:42:02;;;;;;;1.35;0.60;;;;;;;19.72;51.63;97867.09;10175630;29;20064;-54
2022/07/17 07:47:22;;;;;;;0.90;0.55;;;;;;;19.71;51.59;97859.25;10183292;29;20059;-56
2022/07/17 07:52:42;;;;;;;0.88;0.70;;;;;;;19.72;51.74;97860.91;10175157;29;20068;-56
2022/07/17 07:58:10;;;;;;;1.63;0.70;;;;;;;19.72;51.78;97871.72;10174900;29;20056;-55
2022/07/17 08:03:30;;;;;;;0.80;0.65;;;;;;;19.73;51.78;97867.91;10174792;29;20071;-56
2022/07/17 08:08:49;;;;;;;1.15;0.75;;;;;;;19.72;51.78;97871.72;10174461;29;20075;-56
2022/07/17 08:14:10;;;;;;;0.93;0.68;;;;;;;19.72;51.71;97871.72;10164060;29;20068;-56
2022/07/17 08:19:29;;;;;;;0.65;0.52;;;;;;;19.73;51.80;97873.31;10186975;29;20477;-56
2022/07/17 08:24:48;;;;;;;0.93;0.60;;;;;;;19.72;51.73;97871.72;10181691;29;20056;-56
2022/07/17 08:30:10;;;;;;;0.80;0.55;;;;;;;19.74;51.71;97872.22;10186303;29;20052;-56
2022/07/17 08:35:31;;;;;;;0.70;0.70;;;;;;;19.72;51.76;97860.91;10159571;29;20143;-56
2022/07/17 08:40:53;;;;;;;0.60;0.60;;;;;;;19.74;51.72;97869.53;10173636;29;20059;-55
2022/07/17 08:46:12;;;;;;;1.30;0.60;;;;;;;19.74;51.69;97872.22;10173389;29;20415;-54
2022/07/17 08:51:32;;;;;;;1.77;0.70;;;;;;;19.73;51.82;97870.59;10186095;29;20055;-55
2022/07/17 08:56:51;;;;;;;1.88;0.68;;;;;;;19.73;51.86;97868.69;10185925;29;20066;-54
2022/07/17 09:02:11;;;;;;;0.60;0.52;;;;;;;19.74;51.87;97869.53;10170685;29;20079;-57
2022/07/17 09:07:31;;;;;;;1.05;0.65;;;;;;;19.74;51.74;97874.94;10161375;29;20479;-55
2022/07/17 09:12:50;;;;;;;1.70;0.77;;;;;;;19.73;51.85;97868.69;10172919;29;20112;-56
2022/07/17 09:18:09;;;;;;;1.35;0.68;;;;;;;19.73;51.88;97862.50;10172950;29;20053;-56
2022/07/17 09:23:29;;;;;;;0.82;0.60;;;;;;;19.75;51.84;97869.19;10172676;29;20068;-56
2022/07/17 09:28:48;;;;;;;1.55;0.70;;;;;;;19.75;51.78;97855.69;10180770;29;20519;-56
2022/07/17 09:34:17;;;;;;;1.80;0.77;;;;;;;19.76;51.86;97867.31;10172678;29;20092;-56
2022/07/17 09:39:37;;;;;;;0.40;0.40;;;;;;;19.74;51.99;97867.59;10172682;29;20104;-56
2022/07/17 09:45:02;;;;;;;1.13;0.63;;;;;;;19.74;52.08;97859.50;10166242;29;20056;-53
2022/07/17 09:50:22;;;;;;;1.90;0.70;;;;;;;19.75;51.91;97860.28;10172464;29;20064;-56
2022/07/17 09:55:42;;;;;;;0.52;0.50;;;;;;;19.75;51.90;97852.19;10171684;29;20048;-56
2022/07/17 10:01:02;;;;;;;0.57;0.57;;;;;;;19.75;51.85;97852.19;10157812;29;20068;-56
2022/07/17 10:06:23;;;;;;;0.70;0.60;;;;;;;19.76;51.89;97859.22;10172099;29;20082;-56
2022/07/17 10:11:42;;;;;;;1.13;0.60;;;;;;;19.76;51.80;97848.38;10174569;29;20060;-56
2022/07/17 10:17:06;;;;;;;0.77;0.60;;;;;;;19.77;51.86;97846.47;10177810;29;20420;-56
2022/07/17 10:22:26;;;;;;;0.68;0.57;;;;;;;19.76;51.95;97848.38;10178894;29;20060;-56
2022/07/17 10:27:53;;;;;;;0.80;0.50;;;;;;;19.77;51.90;97846.47;10188053;29;20048;-56
2022/07/17 10:33:16;;;;;;;0.73;0.52;;;;;;;19.77;52.00;97841.06;10178056;29;20068;-56
2022/07/17 10:38:41;;;;;;;0.60;0.52;;;;;;;19.76;51.98;97829.47;10178036;29;20049;-56
2022/07/17 10:44:01;;;;;;;0.70;0.60;;;;;;;19.77;51.89;97841.06;10190537;29;20108;-56
2022/07/17 10:49:20;;;;;;;0.60;0.60;;;;;;;19.77;51.94;97844.56;10177655;29;20056;-56
2022/07/17 10:54:40;;;;;;;0.82;0.70;;;;;;;19.77;51.78;97836.47;10180213;29;20099;-56
2022/07/17 10:59:59;;;;;;;0.50;0.50;;;;;;;19.78;51.83;97839.97;10177323;29;20056;-56
2022/07/17 11:05:19;;;;;;;0.50;0.50;;;;;;;19.78;51.97;97843.47;10177186;29;20076;-56
2022/07/17 11:10:38;;;;;;;0.57;0.57;;;;;;;19.78;51.99;97838.06;10176716;29;20060;-56
2022/07/17 11:15:58;;;;;;;0.55;0.50;;;;;;;19.78;51.97;97840.78;10162377;29;20056;-55
2022/07/17 11:21:18;;;;;;;0.60;0.50;;;;;;;19.79;52.05;97839.66;10176148;29;20064;-56
2022/07/17 11:26:37;;;;;;;0.68;0.60;;;;;;;19.79;51.90;97822.66;10175869;29;20056;-56
2022/07/17 11:31:57;;;;;;;0.60;0.50;;;;;;;19.81;51.88;97825.84;10157801;29;20060;-56
2022/07/17 11:37:17;;;;;;;0.50;0.50;;;;;;;19.81;52.07;97828.56;10188260;29;20123;-56
2022/07/17 11:42:36;;;;;;;0.95;0.70;;;;;;;19.81;52.01;97826.66;10172475;29;20068;-57
2022/07/17 11:48:01;;;;;;;0.73;0.60;;;;;;;19.82;52.08;97827.47;10163203;29;20064;-56
2022/07/17 11:53:31;;;;;;;0.63;0.55;;;;;;;19.81;52.00;97826.66;10175265;29;20083;-56
2022/07/17 11:58:50;;;;;;;1.08;0.50;;;;;;;19.81;51.98;97829.34;10174519;29;20513;-56
2022/07/17 12:04:12;;;;;;;0.55;0.50;;;;;;;19.82;52.08;97819.34;10163261;29;20469;-55
2022/07/17 12:09:36;;;;;;;0.88;0.60;;;;;;;19.82;52.00;97820.16;10174370;29;20080;-56
2022/07/17 12:14:59;;;;;;;0.63;0.50;;;;;;;19.82;52.07;97812.03;10187139;29;20052;-57
2022/07/17 12:20:19;;;;;;;0.77;0.50;;;;;;;19.83;52.16;97810.91;10174571;29;20056;-52
2022/07/17 12:25:38;;;;;;;0.68;0.68;;;;;;;19.83;52.17;97810.13;10190370;29;20046;-56
2022/07/17 12:30:58;;;;;;;0.50;0.50;;;;;;;19.83;52.09;97808.22;10175441;29;20496;-56
2022/07/17 12:36:17;;;;;;;0.60;0.60;;;;;;;19.84;52.17;97798.22;10171999;29;20064;-56
2022/07/17 12:41:37;;;;;;;0.47;0.47;;;;;;;19.84;52.21;97793.59;10175569;29;20103;-56
2022/07/17 12:46:56;;;;;;;0.60;0.50;;;;;;;19.84;52.17;97801.72;10174222;29;20059;-56
2022/07/17 12:52:15;;;;;;;0.65;0.60;;;;;;;19.85;52.16;97789.78;10173377;29;20062;-56
2022/07/17 12:57:35;;;;;;;0.70;0.60;;;;;;;19.85;52.26;97800.59;10173258;29;20460;-56
2022/07/17 13:02:54;;;;;;;0.70;0.50;;;;;;;19.86;52.25;97790.59;10173118;29;20052;-56
2022/07/17 13:08:14;;;;;;;0.73;0.50;;;;;;;19.87;52.28;97794.91;10172839;29;20056;-56
2022/07/17 13:13:34;;;;;;;0.50;0.50;;;;;;;19.86;52.26;97796.81;10186164;29;20108;-55
2022/07/17 13:18:53;;;;;;;0.80;0.50;;;;;;;19.86;52.28;97791.41;10163191;29;20079;-57
2022/07/17 13:24:12;;;;;;;0.75;0.50;;;;;;;19.87;52.34;97787.56;10172767;29;20068;-56
2022/07/17 13:29:32;;;;;;;0.40;0.40;;;;;;;19.87;52.51;97782.16;10190938;29;20060;-56
2022/07/17 13:34:51;;;;;;;0.50;0.50;;;;;;;19.88;52.47;97785.69;10172208;29;20155;-56
2022/07/17 13:40:11;;;;;;;0.68;0.50;;;;;;;19.88;52.37;97789.19;10172628;29;20055;-56
2022/07/17 13:45:30;;;;;;;0.70;0.50;;;;;;;19.89;52.50;97798.88;10186347;29;20504;-56
2022/07/17 13:50:50;;;;;;;0.40;0.40;;;;;;;19.90;52.36;97784.28;10179011;29;20055;-55
2022/07/17 13:56:09;;;;;;;0.68;0.60;;;;;;;19.90;52.56;97786.97;10192302;29;20409;-57
2022/07/17 14:01:29;;;;;;;0.40;0.40;;;;;;;19.92;52.26;97789.41;10179304;29;20067;-57
2022/07/17 14:06:49;;;;;;;0.30;0.30;;;;;;;19.92;52.48;97775.88;10176191;29;20131;-56
2022/07/17 14:12:08;;;;;;;0.40;0.40;;;;;;;19.94;52.49;97770.97;10166494;29;20508;-56
2022/07/17 14:17:28;;;;;;;0.50;0.45;;;;;;;19.94;52.49;97765.56;10178999;29;20400;-56
2022/07/17 14:22:48;;;;;;;0.50;0.50;;;;;;;19.94;52.45;97762.84;10178763;29;20067;-56
2022/07/17 14:28:07;;;;;;;0.50;0.50;;;;;;;19.96;52.44;97760.63;10189849;29;20480;-55
2022/07/17 14:33:26;;;;;;;0.55;0.55;;;;;;;19.97;52.45;97764.94;10190819;29;20115;-56
2022/07/17 14:38:46;;;;;;;0.50;0.40;;;;;;;19.98;52.44;97755.72;10178086;29;20064;-57
2022/07/17 14:44:05;;;;;;;0.60;0.47;;;;;;;20.00;52.42;97753.50;10190391;29;20055;-56
2022/07/17 14:49:26;;;;;;;0.82;0.60;;;;;;;20.01;52.44;97746.97;10189879;29;20052;-56
2022/07/17 14:54:46;;;;;;;0.50;0.50;;;;;;;20.03;52.50;97747.50;10177619;29;20060;-56
2022/07/17 15:00:06;;;;;;;0.60;0.50;;;;;;;20.05;52.46;97748.00;10176112;29;20116;-56
2022/07/17 15:05:25;;;;;;;0.50;0.50;;;;;;;20.07;52.46;97742.28;10175221;29;20135;-56
2022/07/17 15:10:44;;;;;;;0.80;0.60;;;;;;;20.08;52.46;97749.28;10176283;29;20059;-56
2022/07/17 15:16:04;;;;;;;0.50;0.50;;;;;;;20.10;52.49;97747.09;10189263;29;20052;-56
2022/07/17 15:21:23;;;;;;;0.50;0.50;;;;;;;20.12;52.40;97744.88;10172744;29;20119;-55
2022/07/17 15:26:45;;;;;;;0.40;0.40;;;;;;;20.12;52.53;97742.16;10187237;29;20500;-54
2022/07/17 15:32:05;;;;;;;0.68;0.40;;;;;;;20.13;52.52;97730.22;10175298;29;20056;-55
2022/07/17 15:37:25;;;;;;;0.50;0.50;;;;;;;20.15;52.42;97738.88;10175863;29;20063;-54
2022/07/17 15:42:44;;;;;;;0.47;0.43;;;;;;;20.18;52.49;97742.84;10188287;29;20115;-56
2022/07/17 15:48:04;;;;;;;0.70;0.57;;;;;;;20.18;52.47;97727.41;10174699;29;20146;-56
2022/07/17 15:53:23;;;;;;;0.40;0.40;;;;;;;20.18;52.53;97727.41;10174973;29;20060;-57
2022/07/17 15:58:43;;;;;;;0.45;0.40;;;;;;;20.20;52.45;97725.19;10175433;29;20200;-56
2022/07/17 16:04:02;;;;;;;0.43;0.40;;;;;;;20.21;52.53;97724.09;10187081;29;20048;-56
2022/07/17 16:09:24;;;;;;;0.40;0.40;;;;;;;20.21;52.56;97710.59;10186951;29;20056;-56
2022/07/17 16:14:44;;;;;;;0.70;0.50;;;;;;;20.22;52.53;97712.16;10175023;29;20064;-56
2022/07/17 16:20:04;;;;;;;0.50;0.50;;;;;;;20.23;52.71;97704.84;10173433;29;20518;-55
2022/07/17 16:25:23;;;;;;;0.82;0.60;;;;;;;20.23;52.61;97697.56;10176673;29;20133;-56
2022/07/17 16:30:42;;;;;;;0.50;0.50;;;;;;;20.24;52.61;97701.03;10177059;29;20059;-56
2022/07/17 16:36:02;;;;;;;0.57;0.57;;;;;;;20.24;52.78;97699.13;10174080;29;20060;-54
2022/07/17 16:41:22;;;;;;;0.50;0.40;;;;;;;20.25;52.69;97695.34;10172956;29;20094;-57
2022/07/17 16:46:41;;;;;;;0.60;0.50;;;;;;;20.26;52.66;97686.09;10172944;29;20492;-56
2022/07/17 16:52:01;;;;;;;0.47;0.47;;;;;;;20.26;52.66;97679.88;10173728;29;20064;-56
2022/07/17 16:57:21;;;;;;;0.65;0.50;;;;;;;20.26;52.76;97683.38;10173373;29;20048;-56
2022/07/17 17:02:40;;;;;;;0.35;0.35;;;;;;;20.27;52.65;97686.91;10179318;29;20044;-56
2022/07/17 17:08:00;;;;;;;0.43;0.40;;;;;;;20.26;52.89;97677.97;10173538;29;20075;-56
2022/07/17 17:13:19;;;;;;;0.93;0.43;;;;;;;20.26;52.81;97680.69;10172486;29;20370;-56
2022/07/17 17:18:39;;;;;;;0.50;0.50;;;;;;;20.27;52.81;97678.81;10172818;29;20531;-56
2022/07/17 17:23:58;;;;;;;1.20;0.50;;;;;;;20.26;52.84;97677.19;10179794;29;20064;-56
2022/07/17 17:29:18;;;;;;;0.50;0.50;;;;;;;20.27;52.79;97676.88;10179940;29;20064;-56
2022/07/17 17:34:37;;;;;;;0.60;0.40;;;;;;;20.27;52.75;97678.81;10180370;29;20064;-56
2022/07/17 17:39:57;;;;;;;1.38;0.50;;;;;;;20.26;52.85;97675.28;10180857;29;20064;-56
2022/07/17 17:45:16;;;;;;;0.85;0.52;;;;;;;20.25;52.96;97667.50;10179934;29;20064;-56
2022/07/17 17:50:36;;;;;;;0.52;0.40;;;;;;;20.25;53.14;97672.91;10179234;29;20428;-56
2022/07/17 17:55:55;;;;;;;0.40;0.40;;;;;;;20.24;53.01;97677.47;10179534;29;20048;-56
2022/07/17 18:01:15;;;;;;;0.50;0.40;;;;;;;20.22;52.98;97674.28;10179520;29;20060;-55
2022/07/17 18:06:36;;;;;;;0.50;0.50;;;;;;;20.23;53.01;97681.31;10179200;29;20056;-56
2022/07/17 18:11:55;;;;;;;0.43;0.43;;;;;;;20.24;53.05;97682.91;10191661;29;20072;-56
2022/07/17 18:17:14;;;;;;;0.50;0.43;;;;;;;20.22;52.92;97690.53;10180587;29;20452;-56
2022/07/17 18:22:34;;;;;;;0.60;0.40;;;;;;;20.22;53.00;97687.81;10191307;29;20416;-56
2022/07/17 18:27:53;;;;;;;0.60;0.50;;;;;;;20.22;52.99;97687.81;10185395;29;20143;-56
2022/07/17 18:33:13;;;;;;;0.50;0.50;;;;;;;20.23;52.98;97697.56;10190444;29;20060;-56
2022/07/17 18:38:33;;;;;;;0.60;0.50;;;;;;;20.21;52.97;97691.66;10178224;29;20056;-56
2022/07/17 18:43:52;;;;;;;6.35;0.95;;;;;;;20.20;53.03;97692.75;10185014;29;20107;-56
2022/07/17 18:49:12;;;;;;;0.68;0.40;;;;;;;20.21;53.01;97688.13;10177700;29;20060;-55
2022/07/17 18:54:33;;;;;;;0.50;0.50;;;;;;;20.21;53.52;97702.47;10190288;29;20484;-56
2022/07/17 18:59:52;;;;;;;0.82;0.50;;;;;;;20.21;53.09;97705.19;10177634;29;20055;-55
2022/07/17 19:05:12;;;;;;;0.82;0.50;;;;;;;20.21;53.12;97715.16;10177307;29;20056;-56
2022/07/17 19:10:32;;;;;;;0.82;0.60;;;;;;;20.21;53.01;97707.06;10176321;29;20056;-56
2022/07/17 19:15:51;;;;;;;0.63;0.50;;;;;;;20.20;52.86;97714.38;10176298;29;20520;-56
2022/07/17 19:21:11;;;;;;;0.70;0.45;;;;;;;20.20;52.98;97722.50;10189098;29;20526;-56
2022/07/17 19:26:31;;;;;;;0.63;0.50;;;;;;;20.20;52.90;97736.03;10186984;29;20134;-56
2022/07/17 19:31:50;;;;;;;1.45;0.57;;;;;;;20.19;52.89;97739.84;10156858;29;20114;-56
2022/07/17 19:37:10;;;;;;;0.45;0.45;;;;;;;20.20;52.98;97749.56;10176050;29;20052;-56
2022/07/17 19:42:30;;;;;;;0.75;0.50;;;;;;;20.19;52.75;97750.69;10171270;29;20076;-56
2022/07/17 19:47:50;;;;;;;0.50;0.50;;;;;;;20.20;52.80;97748.75;10175587;29;20099;-56
2022/07/17 19:53:09;;;;;;;0.60;0.60;;;;;;;20.19;52.76;97750.69;10187878;29;20056;-56
2022/07/17 19:58:28;;;;;;;1.52;0.50;;;;;;;20.19;52.75;97747.16;10175019;29;20120;-56
2022/07/17 20:03:48;;;;;;;0.70;0.57;;;;;;;20.18;52.68;97743.66;10174305;29;20062;-56
2022/07/17 20:09:12;;;;;;;1.08;0.70;;;;;;;20.19;52.59;97749.84;10173998;29;20523;-56
2022/07/17 20:14:31;;;;;;;0.60;0.50;;;;;;;20.18;52.53;97745.56;10173984;29;20079;-56
2022/07/17 20:19:51;;;;;;;0.40;0.40;;;;;;;20.19;52.55;97749.84;10187209;29;20060;-56
2022/07/17 20:25:10;;;;;;;0.57;0.57;;;;;;;20.18;52.51;97754.47;10174224;29;20064;-56
2022/07/17 20:30:29;;;;;;;0.57;0.40;;;;;;;20.19;52.39;97757.97;10187153;29;20099;-56
2022/07/17 20:35:50;;;;;;;0.60;0.50;;;;;;;20.18;52.35;97757.19;10177036;29;20050;-56
2022/07/17 20:41:12;;;;;;;0.70;0.50;;;;;;;20.18;52.29;97768.00;10171825;29;20060;-56
2022/07/17 20:46:32;;;;;;;0.50;0.50;;;;;;;20.18;52.28;97767.19;10186095;29;20563;-54
2022/07/17 20:51:51;;;;;;;0.50;0.50;;;;;;;20.17;52.23;97766.41;10173580;29;20056;-57
2022/07/17 20:57:12;;;;;;;0.80;0.70;;;;;;;20.16;52.18;97775.63;10169058;29;20067;-54
2022/07/17 21:02:32;;;;;;;0.88;0.60;;;;;;;20.18;52.20;97767.19;10160472;29;20060;-52
2022/07/17 21:07:51;;;;;;;0.60;0.60;;;;;;;20.15;52.26;97760.50;10173036;29;20448;-57
2022/07/17 21:13:10;;;;;;;0.80;0.60;;;;;;;20.16;52.05;97767.50;10173184;29;20056;-56
2022/07/17 21:18:29;;;;;;;0.80;0.68;;;;;;;20.15;51.99;97772.13;10185702;29;20523;-56
2022/07/17 21:23:49;;;;;;;1.23;0.68;;;;;;;20.15;51.96;97776.75;10185146;29;20429;-56
2022/07/17 21:29:08;;;;;;;0.80;0.80;;;;;;;20.15;51.95;97774.03;10191884;29;20063;-56
2022/07/17 21:34:28;;;;;;;1.02;0.70;;;;;;;20.14;52.00;97780.53;10171615;29;20060;-57
2022/07/17 21:39:47;;;;;;;49.55;3.17;;;;;;;20.15;51.83;97787.56;10163171;29;20093;-55
2022/07/17 21:45:07;;;;;;;0.60;0.60;;;;;;;20.14;51.70;97780.53;10158160;29;20056;-56
2022/07/17 21:50:26;;;;;;;1.48;0.77;;;;;;;20.13;51.76;97787.03;10184749;29;20481;-56
2022/07/17 21:55:45;;;;;;;0.68;0.60;;;;;;;20.14;51.71;97786.75;10171014;29;20059;-56
2022/07/17 22:01:06;;;;;;;0.50;0.50;;;;;;;20.14;51.62;97789.44;10174255;29;20100;-56
2022/07/17 22:06:27;;;;;;;0.90;0.55;;;;;;;20.13;51.56;97792.44;10172822;29;20060;-55
2022/07/17 22:11:46;;;;;;;0.63;0.60;;;;;;;20.13;51.64;97797.84;10164479;29;20524;-56
2022/07/17 22:17:06;;;;;;;0.60;0.60;;;;;;;20.12;51.58;97807.09;10167577;29;20060;-57
2022/07/17 22:22:26;;;;;;;0.68;0.68;;;;;;;20.12;51.58;97804.38;10178836;29;20067;-56
2022/07/17 22:27:45;;;;;;;0.73;0.73;;;;;;;20.13;51.43;97805.97;10189837;29;20055;-56
2022/07/17 22:33:05;;;;;;;0.63;0.63;;;;;;;20.12;51.43;97801.69;10178291;29;20059;-56
2022/07/17 22:38:25;;;;;;;0.75;0.60;;;;;;;20.12;51.39;97801.69;10184660;29;20447;-56
2022/07/17 22:43:44;;;;;;;0.70;0.70;;;;;;;20.11;51.43;97792.78;10178245;29;20056;-57
2022/07/17 22:49:04;;;;;;;1.40;0.75;;;;;;;20.10;51.42;97793.88;10177022;29;20496;-56
2022/07/17 22:54:23;;;;;;;0.90;0.60;;;;;;;20.12;51.30;97796.28;10190107;29;20107;-56
2022/07/17 22:59:43;;;;;;;1.42;1.00;;;;;;;20.11;51.37;97797.38;10177049;29;20544;-57
2022/07/17 23:05:03;;;;;;;0.68;0.60;;;;;;;20.10;51.40;97801.97;10177083;29;20056;-56
2022/07/17 23:10:23;;;;;;;1.20;0.90;;;;;;;20.10;51.34;97798.47;10189549;29;20060;-56
2022/07/17 23:15:42;;;;;;;0.63;0.55;;;;;;;20.10;51.40;97798.47;10153234;29;20072;-56
2022/07/17 23:21:02;;;;;;;0.60;0.60;;;;;;;20.09;51.33;97794.97;10188163;29;20382;-56
2022/07/17 23:26:21;;;;;;;0.80;0.70;;;;;;;20.10;51.25;97795.78;10175985;29;20056;-56
2022/07/17 23:31:41;;;;;;;1.40;0.70;;;;;;;20.09;51.26;97783.34;10163256;29;20512;-57
2022/07/17 23:37:00;;;;;;;0.95;0.80;;;;;;;20.09;51.23;97794.16;10188632;29;20063;-56
2022/07/17 23:42:19;;;;;;;1.15;0.80;;;;;;;20.08;50.96;97790.66;10176203;29;20056;-56
2022/07/17 23:47:39;;;;;;;0.75;0.75;;;;;;;20.07;51.06;97791.78;10175751;29;20123;-57
2022/07/17 23:52:58;;;;;;;0.60;0.60;;;;;;;20.09;51.11;97794.16;10165570;29;20052;-56
2022/07/17 23:58:17;;;;;;;0.90;0.73;;;;;;;20.08;51.04;97781.75;10175440;29;20060;-56
